createdAt,value
2018-11-27T00:04:38.560Z,69.57
2018-11-27T00:09:43.731Z,67.63
2018-11-27T00:14:49.347Z,60.37
2018-11-27T00:19:54.796Z,51.27
2018-11-27T00:25:00.434Z,58.23
2018-11-27T00:30:08.313Z,58.30
2018-11-27T00:35:15.083Z,68.00
2018-11-27T00:40:21.746Z,60.83
2018-11-27T00:45:27.100Z,56.87
2018-11-27T00:50:32.513Z,59.30
2018-11-27T00:55:38.148Z,58.30
2018-11-27T01:00:44.048Z,61.87
2018-11-27T01:05:49.456Z,67.60
2018-11-27T01:10:54.905Z,68.70
2018-11-27T01:16:00.303Z,70.63
2018-11-27T01:21:06.564Z,69.03
2018-11-27T01:26:11.960Z,68.47
2018-11-27T01:31:18.341Z,66.70
2018-11-27T01:36:23.823Z,80.67
2018-11-27T01:41:29.330Z,86.93
2018-11-27T01:46:35.824Z,70.33
2018-11-27T01:51:41.203Z,77.03
2018-11-27T01:56:46.677Z,78.90
2018-11-27T02:01:52.246Z,64.63
2018-11-27T02:06:57.879Z,72.57
2018-11-27T02:12:03.253Z,74.37
2018-11-27T02:17:08.754Z,83.97
2018-11-27T02:22:14.491Z,76.37
2018-11-27T02:27:20.047Z,69.77
2018-11-27T02:32:25.737Z,67.70
2018-11-27T02:37:31.216Z,71.27
2018-11-27T02:42:36.583Z,71.70
2018-11-27T02:47:42.640Z,75.80
2018-11-27T02:52:47.987Z,72.47
2018-11-27T02:57:53.160Z,74.70
2018-11-27T03:02:58.356Z,72.10
2018-11-27T03:08:03.958Z,81.03
2018-11-27T03:13:09.951Z,70.90
2018-11-27T03:18:15.948Z,87.30
2018-11-27T03:23:21.388Z,77.33
2018-11-27T03:28:26.783Z,68.30
2018-11-27T03:33:32.251Z,65.47
2018-11-27T03:38:37.723Z,78.27
2018-11-27T03:43:43.088Z,69.67
2018-11-27T03:48:48.678Z,65.17
2018-11-27T03:53:54.465Z,66.70
2018-11-27T03:59:00.014Z,63.73
2018-11-27T04:04:10.037Z,69.70
2018-11-27T04:09:11.611Z,60.13
2018-11-27T04:14:17.032Z,58.50
2018-11-27T04:19:22.592Z,64.27
2018-11-27T04:24:28.068Z,56.03
2018-11-27T04:29:33.543Z,56.93
2018-11-27T04:34:39.008Z,56.60
2018-11-27T04:39:44.650Z,65.57
2018-11-27T04:44:50.361Z,76.50
2018-11-27T04:49:55.867Z,61.80
2018-11-27T04:55:01.266Z,62.60
2018-11-27T05:00:25.983Z,54.47
2018-11-27T05:05:31.343Z,63.83
2018-11-27T05:10:36.728Z,55.10
2018-11-27T05:15:42.104Z,45.70
2018-11-27T05:20:47.795Z,58.43
2018-11-27T05:25:53.883Z,59.43
2018-11-27T05:30:59.551Z,47.80
2018-11-27T05:36:05.043Z,45.60
2018-11-27T05:41:10.567Z,46.23
2018-11-27T05:46:16.062Z,53.13
2018-11-27T05:51:21.908Z,52.40
2018-11-27T05:56:27.438Z,50.47
2018-11-27T06:01:33.057Z,54.67
2018-11-27T06:06:39.080Z,63.33
2018-11-27T06:11:45.012Z,52.23
2018-11-27T06:16:50.669Z,44.10
2018-11-27T06:21:56.121Z,39.67
2018-11-27T06:27:02.080Z,48.53
2018-11-27T06:32:07.798Z,48.77
2018-11-27T06:37:13.353Z,40.07
2018-11-27T06:42:19.223Z,42.20
2018-11-27T06:47:24.985Z,42.37
2018-11-27T06:52:30.427Z,36.00
2018-11-27T06:57:36.262Z,38.90
2018-11-27T07:02:41.768Z,37.60
2018-11-27T07:07:47.212Z,44.33
2018-11-27T07:12:54.309Z,36.33
2018-11-27T07:17:59.905Z,35.20
2018-11-27T07:23:05.519Z,44.63
2018-11-27T07:28:11.405Z,42.40
2018-11-27T07:33:17.022Z,48.07
2018-11-27T07:38:23.569Z,50.13
2018-11-27T07:43:28.943Z,49.03
2018-11-27T07:48:34.680Z,54.57
2018-11-27T07:53:40.218Z,55.93
2018-11-27T07:58:45.647Z,52.00
2018-11-27T08:03:51.285Z,42.23
2018-11-27T08:08:57.247Z,47.63
2018-11-27T08:14:02.700Z,48.27
2018-11-27T08:19:08.081Z,39.37
2018-11-27T08:24:13.544Z,45.20
2018-11-27T08:29:19.305Z,41.10
2018-11-27T08:34:25.158Z,45.13
2018-11-27T08:39:30.586Z,44.63
2018-11-27T08:44:36.161Z,42.97
2018-11-27T08:49:41.730Z,42.23
2018-11-27T08:54:47.202Z,43.50
2018-11-27T08:59:52.813Z,39.97
2018-11-27T09:04:58.496Z,33.67
2018-11-27T09:10:03.997Z,39.67
2018-11-27T09:15:11.123Z,37.20
2018-11-27T09:20:16.989Z,32.97
2018-11-27T09:25:23.185Z,32.47
2018-11-27T09:30:28.550Z,41.30
2018-11-27T09:35:34.229Z,40.73
2018-11-27T09:40:39.796Z,37.17
2018-11-27T09:45:46.182Z,35.33
2018-11-27T09:50:51.791Z,30.90
2018-11-27T09:55:57.462Z,39.60
2018-11-27T10:01:03.023Z,38.60
2018-11-27T10:06:08.437Z,32.70
2018-11-27T10:11:13.858Z,31.83
2018-11-27T10:16:19.273Z,27.77
2018-11-27T10:21:25.006Z,41.43
2018-11-27T10:26:30.570Z,42.17
2018-11-27T10:31:36.532Z,40.23
2018-11-27T10:36:42.053Z,51.90
2018-11-27T10:41:47.759Z,36.33
2018-11-27T10:46:53.515Z,32.77
2018-11-27T10:51:59.184Z,31.03
2018-11-27T10:57:05.915Z,38.80
2018-11-27T11:02:16.575Z,27.87
2018-11-27T11:07:22.771Z,30.77
2018-11-27T11:12:28.254Z,28.27
2018-11-27T11:17:33.656Z,33.00
2018-11-27T11:22:39.342Z,25.03
2018-11-27T11:27:46.035Z,24.57
2018-11-27T11:32:51.809Z,31.77
2018-11-27T11:37:57.388Z,42.97
2018-11-27T11:43:03.323Z,38.37
2018-11-27T11:48:08.791Z,45.97
2018-11-27T11:53:16.053Z,37.20
2018-11-27T11:58:21.435Z,40.00
2018-11-27T12:03:26.784Z,37.27
2018-11-27T12:08:32.318Z,42.13
2018-11-27T12:13:38.157Z,31.10
2018-11-27T12:18:43.539Z,34.30
2018-11-27T12:23:48.876Z,40.03
2018-11-27T12:28:54.637Z,44.50
2018-11-27T12:33:59.992Z,43.30
2018-11-27T12:39:08.601Z,38.77
2018-11-27T12:44:14.173Z,42.20
2018-11-27T12:49:20.516Z,45.23
2018-11-27T12:54:26.067Z,36.10
2018-11-27T12:59:31.405Z,40.23
2018-11-27T13:04:37.518Z,42.87
2018-11-27T13:09:43.109Z,43.50
2018-11-27T13:14:49.030Z,38.03
2018-11-27T13:19:56.162Z,42.50
2018-11-27T13:25:01.613Z,39.30
2018-11-27T13:30:19.095Z,41.83
2018-11-27T13:35:24.627Z,40.20
2018-11-27T13:40:30.065Z,51.63
2018-11-27T13:45:35.725Z,42.57
2018-11-27T13:50:41.347Z,39.97
2018-11-27T13:55:47.588Z,38.80
2018-11-27T14:00:53.154Z,41.83
2018-11-27T14:05:58.698Z,38.63
2018-11-27T14:11:04.264Z,34.90
2018-11-27T14:16:10.130Z,39.93
2018-11-27T14:21:16.581Z,39.73
2018-11-27T14:26:22.056Z,37.70
2018-11-27T14:31:27.638Z,36.80
2018-11-27T14:36:34.084Z,42.10
2018-11-27T14:41:39.665Z,41.83
2018-11-27T14:46:46.152Z,39.47
2018-11-27T14:51:51.665Z,42.37
2018-11-27T14:56:57.251Z,40.47
2018-11-27T15:02:02.874Z,36.87
2018-11-27T15:07:08.265Z,39.97
2018-11-27T15:12:13.914Z,31.10
2018-11-27T15:17:19.879Z,64.77
2018-11-27T15:22:26.640Z,42.90
2018-11-27T15:27:32.216Z,40.70
2018-11-27T15:32:37.606Z,36.07
2018-11-27T15:37:43.217Z,42.63
2018-11-27T15:42:48.835Z,44.03
2018-11-27T15:47:54.502Z,38.43
2018-11-27T15:53:00.000Z,37.13
2018-11-27T15:58:08.863Z,38.03
2018-11-27T16:03:14.415Z,41.07
2018-11-27T16:08:19.942Z,41.97
2018-11-27T16:13:25.863Z,37.90
2018-11-27T16:18:31.550Z,37.73
2018-11-27T16:23:37.971Z,35.10
2018-11-27T16:28:43.923Z,39.03
2018-11-27T16:33:50.010Z,37.30
2018-11-27T16:38:56.130Z,33.17
2018-11-27T16:44:01.731Z,39.10
2018-11-27T16:49:07.743Z,35.70
2018-11-27T16:54:14.181Z,48.73
2018-11-27T16:59:20.002Z,33.23
2018-11-27T17:04:26.008Z,35.27
2018-11-27T17:09:32.839Z,35.57
2018-11-27T17:14:38.770Z,31.23
2018-11-27T17:19:44.452Z,29.87
2018-11-27T17:24:50.355Z,30.63
2018-11-27T17:29:56.597Z,30.00
2018-11-27T17:35:02.733Z,42.87
2018-11-27T17:40:10.710Z,33.83
2018-11-27T17:45:17.164Z,32.87
2018-11-27T17:50:23.340Z,29.97
2018-11-27T17:55:29.478Z,33.27
2018-11-27T18:00:36.310Z,29.97
2018-11-27T18:05:42.197Z,35.33
2018-11-27T18:10:47.972Z,31.27
2018-11-27T18:15:53.769Z,36.53
2018-11-27T18:20:59.303Z,33.90
2018-11-27T18:26:05.669Z,31.87
2018-11-27T18:31:11.485Z,39.80
2018-11-27T18:36:17.838Z,38.43
2018-11-27T18:41:23.460Z,34.77
2018-11-27T18:46:30.055Z,34.53
2018-11-27T18:51:36.284Z,36.03
2018-11-27T18:56:42.055Z,38.53
2018-11-27T19:01:47.759Z,42.77
2018-11-27T19:06:53.598Z,42.50
2018-11-27T19:11:59.826Z,42.63
2018-11-27T19:17:05.734Z,36.77
2018-11-27T19:22:11.664Z,42.60
2018-11-27T19:27:17.271Z,34.53
2018-11-27T19:32:22.824Z,36.50
2018-11-27T19:37:28.279Z,39.10
2018-11-27T19:42:34.223Z,43.13
2018-11-27T19:47:40.545Z,41.53
2018-11-27T19:52:47.619Z,40.30
2018-11-27T19:57:54.186Z,39.37
2018-11-27T20:02:59.773Z,39.00
2018-11-27T20:08:07.094Z,39.60
2018-11-27T20:13:15.024Z,46.17
2018-11-27T20:18:24.984Z,45.80
2018-11-27T20:23:30.548Z,45.13
2018-11-27T20:28:36.027Z,45.33
2018-11-27T20:33:42.455Z,48.50
2018-11-27T20:38:48.016Z,46.30
2018-11-27T20:43:54.357Z,40.67
2018-11-27T20:49:00.490Z,41.70
2018-11-27T20:54:06.608Z,43.40
2018-11-27T20:59:12.423Z,51.17
2018-11-27T21:04:18.117Z,50.43
2018-11-27T21:09:23.641Z,38.40
2018-11-27T21:14:29.222Z,37.27
2018-11-27T21:19:35.713Z,42.47
2018-11-27T21:24:41.428Z,35.17
2018-11-27T21:29:47.264Z,45.90
2018-11-27T21:34:53.239Z,43.73
2018-11-27T21:39:58.161Z,47.50
2018-11-27T21:45:03.657Z,43.63
2018-11-27T21:50:11.623Z,44.90
2018-11-27T21:55:17.558Z,42.40
2018-11-27T22:00:24.385Z,40.07
2018-11-27T22:05:30.315Z,41.50
2018-11-27T22:10:36.563Z,39.10
2018-11-27T22:15:43.480Z,35.13
2018-11-27T22:20:48.971Z,42.73
2018-11-27T22:25:54.365Z,39.03
2018-11-27T22:30:59.786Z,44.13
2018-11-27T22:36:05.479Z,44.57
2018-11-27T22:41:11.336Z,40.90
2018-11-27T22:46:17.431Z,39.67
2018-11-27T22:51:22.822Z,39.83
2018-11-27T22:56:28.310Z,47.93
2018-11-27T23:01:38.668Z,36.47
2018-11-27T23:06:44.441Z,38.17
2018-11-27T23:11:51.162Z,34.93
2018-11-27T23:16:56.791Z,32.80
2018-11-27T23:22:03.762Z,34.00
2018-11-27T23:27:09.418Z,30.27
2018-11-27T23:32:15.338Z,28.63
2018-11-27T23:37:20.844Z,23.83
2018-11-27T23:42:26.247Z,32.83
2018-11-27T23:47:31.704Z,28.93
2018-11-27T23:52:37.244Z,23.00
2018-11-27T23:57:43.899Z,29.20
